Time;durP1;ratioP1;P1;durP2;ratioP2;P2;SDS_P1;SDS_P2;PMS_P1;PMS_P2;Temp;Humidity;BMP_temperature;BMP_pressure;BME280_temperature;BME280_humidity;BME280_pressure;Samples;Min_cycle;Max_cycle;Signal;HPM_P1;HPM_P2
2022/07/03 00:01:03;;;;;;;15.57;11.60;;;16.60;99.90;;;;;;4953504;28;20049;-67
2022/07/03 00:03:29;;;;;;;17.83;12.95;;;16.50;99.90;;;;;;4958104;28;20445;-67
2022/07/03 00:05:55;;;;;;;18.48;12.85;;;16.50;99.90;;;;;;4962370;28;20070;-68
2022/07/03 00:08:20;;;;;;;20.92;12.55;;;16.50;99.90;;;;;;4959649;28;20129;-67
2022/07/03 00:10:46;;;;;;;21.88;14.45;;;16.40;99.90;;;;;;4956369;28;20047;-67
2022/07/03 00:13:12;;;;;;;19.95;13.90;;;16.40;99.90;;;;;;4959358;28;20109;-67
2022/07/03 00:15:38;;;;;;;23.63;14.70;;;16.40;99.90;;;;;;4959467;28;20441;-66
2022/07/03 00:18:04;;;;;;;20.92;14.20;;;16.40;99.90;;;;;;4965543;28;20046;-66
2022/07/03 00:20:37;;;;;;;19.45;14.05;;;16.20;99.90;;;;;;4957231;28;20069;-66
2022/07/03 00:23:07;;;;;;;25.00;16.40;;;16.20;99.90;;;;;;4961095;28;20402;-67
2022/07/03 00:25:33;;;;;;;27.13;16.73;;;16.10;99.90;;;;;;4954897;28;20053;-67
2022/07/03 00:27:59;;;;;;;21.25;16.38;;;16.10;99.90;;;;;;4957096;28;20051;-67
2022/07/03 00:30:25;;;;;;;20.35;15.68;;;16.10;99.90;;;;;;4969042;28;20049;-67
2022/07/03 00:32:52;;;;;;;23.10;15.02;;;16.10;99.90;;;;;;4956242;28;20444;-67
2022/07/03 00:35:18;;;;;;;21.05;14.48;;;16.10;99.90;;;;;;4937137;28;20042;-66
2022/07/03 00:37:44;;;;;;;22.77;15.05;;;16.00;99.90;;;;;;4963664;28;20396;-67
2022/07/03 00:40:10;;;;;;;24.55;16.35;;;16.00;99.90;;;;;;4956983;28;20121;-67
2022/07/03 00:42:39;;;;;;;21.52;15.77;;;15.90;99.90;;;;;;4958536;28;20133;-67
2022/07/03 00:45:07;;;;;;;22.60;14.77;;;15.90;99.90;;;;;;4955482;28;20043;-68
2022/07/03 00:47:35;;;;;;;23.63;14.77;;;15.90;99.90;;;;;;4975549;28;20039;-67
2022/07/03 00:50:06;;;;;;;20.92;14.18;;;15.80;99.90;;;;;;4985913;28;20051;-67
2022/07/03 00:52:33;;;;;;;24.77;16.60;;;15.90;99.90;;;;;;4956259;28;20086;-66
2022/07/03 00:55:00;;;;;;;15.10;10.88;;;15.80;99.90;;;;;;4956807;28;20093;-66
2022/07/03 00:57:28;;;;;;;14.10;11.68;;;15.60;99.90;;;;;;4959847;28;20049;-67
2022/07/03 00:59:54;;;;;;;14.95;12.25;;;15.50;99.90;;;;;;4953158;28;20051;-67
2022/07/03 01:02:42;;;;;;;18.55;12.40;;;15.30;99.90;;;;;;4962544;28;20515;-67
2022/07/03 01:05:30;;;;;;;21.50;15.57;;;15.20;99.90;;;;;;4957600;28;20034;-68
2022/07/03 01:08:07;;;;;;;22.33;16.35;;;15.20;99.90;;;;;;4958110;28;20042;-67
2022/07/03 01:10:49;;;;;;;24.02;16.23;;;15.20;99.90;;;;;;4958734;28;20077;-67
2022/07/03 01:13:25;;;;;;;21.80;15.05;;;15.20;99.90;;;;;;4956715;28;20046;-66
2022/07/03 01:16:09;;;;;;;24.88;14.50;;;15.20;99.90;;;;;;4968224;28;20039;-66
2022/07/03 01:18:45;;;;;;;15.48;11.70;;;15.20;99.90;;;;;;4967157;28;20054;-67
2022/07/03 01:21:35;;;;;;;13.98;11.30;;;15.10;99.90;;;;;;4967415;28;20026;-66
2022/07/03 01:24:29;;;;;;;12.63;9.02;;;15.00;99.90;;;;;;4960946;28;20043;-67
2022/07/03 01:27:10;;;;;;;14.70;11.40;;;14.90;99.90;;;;;;4961507;28;20393;-66
2022/07/03 01:29:49;;;;;;;18.38;12.48;;;14.70;99.90;;;;;;4982780;28;20458;-67
2022/07/03 01:32:15;;;;;;;18.35;12.50;;;14.70;99.90;;;;;;4954296;28;20129;-66
2022/07/03 01:34:45;;;;;;;16.38;12.00;;;14.70;99.90;;;;;;4960734;28;20130;-67
2022/07/03 01:37:15;;;;;;;17.45;12.40;;;14.70;99.90;;;;;;4959702;28;20046;-66
2022/07/03 01:39:44;;;;;;;14.43;10.93;;;14.70;99.90;;;;;;4960406;28;20051;-66
2022/07/03 01:42:12;;;;;;;12.68;9.82;;;14.60;99.90;;;;;;4957103;28;20070;-66
2022/07/03 01:44:40;;;;;;;12.45;9.38;;;14.50;99.90;;;;;;4962123;28;20062;-66
2022/07/03 01:47:06;;;;;;;14.20;10.27;;;14.30;99.90;;;;;;4961741;28;20039;-66
2022/07/03 01:49:34;;;;;;;16.23;12.48;;;14.20;99.90;;;;;;4959732;28;20061;-66
2022/07/03 01:52:01;;;;;;;249.32;18.95;;;14.30;99.90;;;;;;4958540;28;20035;-66
2022/07/03 01:54:28;;;;;;;65.18;11.23;;;14.10;99.90;;;;;;4938080;28;20541;-66
2022/07/03 01:56:54;;;;;;;17.17;12.27;;;14.10;99.90;;;;;;4985860;28;20042;-66
2022/07/03 01:59:20;;;;;;;18.05;13.18;;;14.00;99.90;;;;;;4962171;28;20057;-66
2022/07/03 02:01:52;;;;;;;26.38;17.52;;;14.00;99.90;;;;;;4967580;28;20042;-66
2022/07/03 02:04:27;;;;;;;32.47;21.45;;;13.90;99.90;;;;;;4946033;28;20038;-67
2022/07/03 02:07:11;;;;;;;49.60;29.45;;;13.80;99.90;;;;;;4971285;28;20039;-67
2022/07/03 02:10:04;;;;;;;61.05;35.45;;;13.70;99.90;;;;;;4958288;28;20039;-67
2022/07/03 02:12:59;;;;;;;65.97;36.72;;;13.80;99.90;;;;;;4965099;28;20133;-66
2022/07/03 02:15:32;;;;;;;61.97;36.58;;;13.80;99.90;;;;;;4950269;28;21134;-66
2022/07/03 02:18:05;;;;;;;57.85;34.00;;;14.00;99.90;;;;;;4956318;28;20038;-66
2022/07/03 02:20:35;;;;;;;57.95;35.83;;;14.10;99.90;;;;;;4977461;28;20109;-66
2022/07/03 02:23:05;;;;;;;57.80;34.33;;;14.10;99.90;;;;;;4960904;28;20047;-66
2022/07/03 02:25:37;;;;;;;60.95;36.13;;;14.10;99.90;;;;;;4964955;28;20552;-66
2022/07/03 02:28:20;;;;;;;57.88;36.08;;;14.10;99.90;;;;;;4952870;28;20085;-66
2022/07/03 02:30:51;;;;;;;59.50;35.92;;;14.10;99.90;;;;;;4976732;28;20043;-66
2022/07/03 02:33:21;;;;;;;58.20;37.03;;;14.20;99.90;;;;;;4986693;28;20041;-66
2022/07/03 02:35:48;;;;;;;51.05;33.03;;;14.30;99.90;;;;;;4954560;28;20035;-66
2022/07/03 02:38:22;;;;;;;55.22;34.10;;;14.20;99.90;;;;;;4952941;28;20038;-66
2022/07/03 02:40:56;;;;;;;46.83;31.08;;;14.20;99.90;;;;;;4984302;28;20109;-66
2022/07/03 02:43:24;;;;;;;49.72;30.92;;;14.30;99.90;;;;;;4953940;28;20043;-66
2022/07/03 02:46:48;;;;;;;45.05;29.48;;;14.20;99.90;;;;;;4958994;28;20045;-66
2022/07/03 02:48:51;;;;;;;48.05;30.48;;;14.20;99.90;;;;;;4955733;28;20090;-66
2022/07/03 02:51:26;;;;;;;47.13;31.95;;;14.20;99.90;;;;;;4951852;28;20043;-66
2022/07/03 02:54:08;;;;;;;61.55;36.28;;;14.10;99.90;;;;;;4987368;28;20065;-65
2022/07/03 02:57:04;;;;;;;58.92;37.67;;;14.10;99.90;;;;;;4957834;28;20058;-66
2022/07/03 02:59:53;;;;;;;63.17;38.38;;;14.10;99.90;;;;;;4953513;28;20125;-67
2022/07/03 03:02:21;;;;;;;63.33;38.42;;;14.10;99.90;;;;;;4981534;28;20050;-66
2022/07/03 03:05:11;;;;;;;63.33;38.00;;;14.20;99.90;;;;;;4955770;28;20042;-66
2022/07/03 03:07:52;;;;;;;60.85;37.67;;;14.30;99.90;;;;;;4969059;28;20490;-66
2022/07/03 03:10:21;;;;;;;62.55;37.42;;;14.20;99.90;;;;;;4943552;28;20054;-66
2022/07/03 03:12:53;;;;;;;59.47;38.17;;;14.20;99.90;;;;;;4958393;28;20043;-66
2022/07/03 03:15:23;;;;;;;64.88;38.63;;;14.30;99.90;;;;;;4956572;28;20034;-66
2022/07/03 03:17:51;;;;;;;65.20;39.38;;;14.30;99.90;;;;;;4959459;28;20046;-67
2022/07/03 03:20:22;;;;;;;66.50;39.75;;;14.30;99.90;;;;;;4960290;28;20480;-66
2022/07/03 03:23:09;;;;;;;65.22;38.97;;;14.30;99.90;;;;;;4936931;28;20049;-66
2022/07/03 03:25:35;;;;;;;69.30;39.45;;;14.30;99.90;;;;;;4956553;28;20043;-66
2022/07/03 03:28:01;;;;;;;74.70;40.40;;;14.40;99.90;;;;;;4958658;28;20051;-66
2022/07/03 03:30:27;;;;;;;67.97;38.35;;;14.40;99.90;;;;;;4953032;28;20053;-67
2022/07/03 03:32:53;;;;;;;62.40;37.85;;;14.50;99.90;;;;;;4955606;28;20054;-67
2022/07/03 03:35:18;;;;;;;71.35;38.70;;;14.50;99.90;;;;;;4966809;28;20038;-67
2022/07/03 03:37:45;;;;;;;63.92;37.00;;;14.40;99.90;;;;;;4955438;28;20043;-66
2022/07/03 03:40:11;;;;;;;57.63;35.53;;;14.50;99.90;;;;;;4953935;28;20046;-66
2022/07/03 03:42:37;;;;;;;47.00;30.48;;;14.50;99.90;;;;;;4959142;28;20126;-67
2022/07/03 03:45:03;;;;;;;46.63;29.55;;;14.60;99.90;;;;;;4953278;28;20122;-66
2022/07/03 03:47:29;;;;;;;44.33;29.15;;;14.60;99.90;;;;;;4985631;28;20054;-66
2022/07/03 03:49:55;;;;;;;43.53;28.88;;;14.50;99.90;;;;;;4969972;28;20052;-66
2022/07/03 03:52:21;;;;;;;49.92;31.90;;;14.60;99.90;;;;;;4956331;28;20047;-66
2022/07/03 03:54:47;;;;;;;53.28;33.75;;;14.60;99.90;;;;;;4959361;28;20054;-66
2022/07/03 03:57:21;;;;;;;62.00;36.13;;;14.60;99.90;;;;;;4955976;28;20039;-65
2022/07/03 03:59:47;;;;;;;63.95;36.60;;;14.40;99.90;;;;;;4955124;28;20038;-67
2022/07/03 04:02:13;;;;;;;60.70;38.67;;;14.40;99.90;;;;;;4951643;28;20098;-67
2022/07/03 04:04:39;;;;;;;67.55;39.95;;;14.30;99.90;;;;;;4946911;28;20035;-66
2022/07/03 04:07:05;;;;;;;72.45;41.33;;;14.10;99.90;;;;;;4953474;28;20105;-66
2022/07/03 04:09:30;;;;;;;65.43;39.60;;;14.20;99.90;;;;;;4954641;28;20046;-66
2022/07/03 04:11:57;;;;;;;68.07;39.83;;;14.20;99.90;;;;;;4951408;28;20382;-67
2022/07/03 04:14:23;;;;;;;61.47;37.33;;;14.20;99.90;;;;;;4933913;28;20035;-67
2022/07/03 04:16:48;;;;;;;56.70;34.97;;;14.30;99.90;;;;;;4950422;28;20524;-66
2022/07/03 04:19:14;;;;;;;56.97;35.03;;;14.30;99.90;;;;;;4952419;28;20043;-66
2022/07/03 04:21:39;;;;;;;67.68;38.95;;;14.40;99.90;;;;;;4962063;28;20462;-66
2022/07/03 04:24:06;;;;;;;58.83;36.33;;;14.40;99.90;;;;;;4954935;28;20031;-66
2022/07/03 04:26:31;;;;;;;62.58;36.63;;;14.40;99.90;;;;;;4963431;28;20477;-66
2022/07/03 04:28:57;;;;;;;59.70;35.78;;;14.50;99.90;;;;;;4955762;28;20062;-66
2022/07/03 04:31:22;;;;;;;48.85;31.38;;;14.50;99.90;;;;;;4957504;28;20038;-66
2022/07/03 04:33:48;;;;;;;53.97;34.45;;;14.50;99.90;;;;;;4954641;28;20071;-66
2022/07/03 04:36:15;;;;;;;45.95;29.88;;;14.50;99.90;;;;;;4980967;28;20042;-66
2022/07/03 04:38:40;;;;;;;54.97;33.40;;;14.50;99.90;;;;;;4961023;28;20437;-66
2022/07/03 04:41:06;;;;;;;49.90;30.98;;;14.50;99.90;;;;;;4961102;28;20035;-66
2022/07/03 04:43:32;;;;;;;42.50;28.55;;;14.60;99.90;;;;;;4955169;28;20189;-66
2022/07/03 04:45:57;;;;;;;58.65;34.85;;;14.60;99.90;;;;;;4982475;28;20035;-66
2022/07/03 04:48:23;;;;;;;45.05;31.48;;;14.50;99.90;;;;;;4951684;28;20508;-66
2022/07/03 04:50:48;;;;;;;51.75;30.15;;;14.60;99.90;;;;;;4958828;28;20042;-66
2022/07/03 04:53:14;;;;;;;43.75;28.77;;;14.60;99.90;;;;;;4964489;28;20039;-66
2022/07/03 04:55:40;;;;;;;44.47;29.58;;;14.70;99.90;;;;;;4964280;28;20038;-66
2022/07/03 04:58:05;;;;;;;49.58;31.17;;;14.70;99.90;;;;;;4958386;28;20046;-66
2022/07/03 05:00:31;;;;;;;50.53;33.05;;;14.70;99.90;;;;;;4942083;28;20464;-66
2022/07/03 05:02:57;;;;;;;53.42;32.85;;;14.80;99.90;;;;;;4959677;28;20113;-66
2022/07/03 05:05:23;;;;;;;46.78;30.65;;;14.80;99.90;;;;;;4962883;28;20176;-66
2022/07/03 05:07:49;;;;;;;56.30;34.67;;;14.90;99.90;;;;;;4952785;28;20057;-66
2022/07/03 05:10:14;;;;;;;55.78;35.10;;;15.00;99.90;;;;;;4956615;28;20051;-66
2022/07/03 05:12:40;;;;;;;54.00;34.75;;;15.00;99.90;;;;;;4960229;28;20059;-68
2022/07/03 05:15:06;;;;;;;58.33;36.88;;;15.10;99.90;;;;;;4959161;28;20053;-67
2022/07/03 05:17:33;;;;;;;64.85;37.47;;;15.20;99.90;;;;;;4957937;28;20043;-66
2022/07/03 05:22:43;;;;;;;73.15;41.60;;;15.40;99.90;;;;;;4956146;28;20045;-66
2022/07/03 05:25:08;;;;;;;74.38;42.08;;;15.50;99.90;;;;;;4976932;28;20397;-67
2022/07/03 05:27:37;;;;;;;79.72;42.33;;;15.70;99.90;;;;;;4957610;28;20039;-66
2022/07/03 05:30:04;;;;;;;72.13;40.40;;;15.90;99.90;;;;;;4956282;28;20050;-67
2022/07/03 05:32:29;;;;;;;78.68;40.53;;;16.00;99.90;;;;;;4957150;28;20058;-66
2022/07/03 05:34:55;;;;;;;74.97;40.53;;;16.20;99.90;;;;;;4956825;28;20506;-66
2022/07/03 05:37:21;;;;;;;70.50;39.53;;;16.40;99.90;;;;;;4956893;28;20097;-67
2022/07/03 05:39:46;;;;;;;66.60;36.35;;;16.60;99.90;;;;;;4950330;28;20137;-66
2022/07/03 05:42:12;;;;;;;54.83;33.85;;;16.70;99.90;;;;;;4959640;28;20038;-66
2022/07/03 05:44:37;;;;;;;56.50;32.58;;;16.80;99.90;;;;;;4956834;28;20383;-66
2022/07/03 05:47:03;;;;;;;50.65;30.20;;;17.00;99.90;;;;;;4964022;28;20488;-67
2022/07/03 05:49:29;;;;;;;49.20;27.88;;;17.20;99.90;;;;;;4954902;28;20054;-67
2022/07/03 05:51:54;;;;;;;57.17;28.55;;;17.40;99.90;;;;;;4961779;28;20121;-67
2022/07/03 05:54:20;;;;;;;44.08;26.63;;;17.50;99.90;;;;;;4958182;28;20357;-67
2022/07/03 05:56:46;;;;;;;44.92;25.88;;;17.60;99.90;;;;;;4960155;28;20093;-66
2022/07/03 05:59:11;;;;;;;40.47;24.65;;;17.70;99.90;;;;;;4963612;28;20042;-67
2022/07/03 06:01:37;;;;;;;44.10;25.77;;;17.80;99.90;;;;;;4985700;28;20042;-67
2022/07/03 06:04:03;;;;;;;39.28;25.50;;;18.00;99.90;;;;;;4975783;28;20126;-67
2022/07/03 06:06:28;;;;;;;38.83;23.15;;;18.10;99.90;;;;;;4957271;28;20125;-67
2022/07/03 06:08:54;;;;;;;40.53;22.98;;;18.30;99.90;;;;;;4962047;28;20042;-67
2022/07/03 06:11:20;;;;;;;40.00;23.33;;;18.30;99.90;;;;;;4956512;28;20089;-69
2022/07/03 06:13:45;;;;;;;30.25;18.98;;;18.40;99.90;;;;;;4961845;28;20514;-68
2022/07/03 06:16:11;;;;;;;36.00;20.65;;;18.50;99.90;;;;;;4954804;28;20049;-69
2022/07/03 06:18:36;;;;;;;26.73;15.65;;;18.50;99.90;;;;;;4954932;28;20541;-69
2022/07/03 06:21:02;;;;;;;28.77;14.00;;;18.50;99.90;;;;;;4959727;28;20042;-69
2022/07/03 06:23:27;;;;;;;23.38;12.82;;;18.50;99.90;;;;;;4957130;28;20114;-69
2022/07/03 06:25:53;;;;;;;23.00;12.50;;;18.50;99.90;;;;;;4960764;28;20035;-68
2022/07/03 06:28:19;;;;;;;23.33;11.75;;;18.60;99.90;;;;;;4958076;28;20038;-67
2022/07/03 06:30:44;;;;;;;20.40;12.18;;;18.70;99.90;;;;;;4957083;28;20066;-67
2022/07/03 06:33:10;;;;;;;17.42;11.32;;;18.80;99.90;;;;;;4955097;28;20118;-67
2022/07/03 06:35:35;;;;;;;19.38;10.15;;;18.80;99.90;;;;;;4958292;28;20061;-68
2022/07/03 06:38:02;;;;;;;18.85;11.35;;;18.80;99.90;;;;;;4940684;28;20030;-68
2022/07/03 06:40:28;;;;;;;20.25;11.77;;;18.90;99.90;;;;;;4955012;28;20545;-67
2022/07/03 06:42:54;;;;;;;21.38;11.68;;;18.80;99.90;;;;;;4957290;28;20042;-68
2022/07/03 06:45:19;;;;;;;19.55;9.93;;;18.80;99.90;;;;;;4953877;28;20516;-68
2022/07/03 06:47:45;;;;;;;18.13;10.00;;;18.90;99.90;;;;;;4953342;28;20031;-67
2022/07/03 06:50:11;;;;;;;18.30;8.82;;;18.90;99.90;;;;;;4955006;28;20086;-69
2022/07/03 06:52:36;;;;;;;14.68;8.48;;;19.20;99.90;;;;;;4949608;28;20460;-70
2022/07/03 06:55:02;;;;;;;17.10;9.13;;;19.30;99.90;;;;;;4955552;28;20513;-68
2022/07/03 06:57:28;;;;;;;16.88;9.07;;;19.50;99.90;;;;;;4955284;28;20073;-68
2022/07/03 06:59:53;;;;;;;21.95;8.85;;;19.50;99.90;;;;;;4950021;28;20047;-69
2022/07/03 07:02:19;;;;;;;14.43;6.35;;;19.50;99.90;;;;;;4952260;28;20530;-71
2022/07/03 07:04:44;;;;;;;12.88;5.50;;;19.40;99.90;;;;;;4944181;28;20369;-67
2022/07/03 07:07:10;;;;;;;14.65;6.25;;;19.30;99.90;;;;;;4956689;28;20057;-68
2022/07/03 07:09:36;;;;;;;12.57;5.97;;;19.30;99.90;;;;;;4955456;28;20043;-67
2022/07/03 07:12:01;;;;;;;10.45;5.82;;;19.30;99.90;;;;;;4953855;28;20449;-68
2022/07/03 07:14:27;;;;;;;12.93;6.03;;;19.40;99.90;;;;;;4955208;28;20035;-68
2022/07/03 07:16:52;;;;;;;16.00;5.60;;;19.40;99.90;;;;;;4954780;28;20047;-71
2022/07/03 07:19:18;;;;;;;17.67;6.13;;;19.50;99.90;;;;;;4964554;28;20525;-71
2022/07/03 07:21:44;;;;;;;13.63;6.50;;;19.60;99.90;;;;;;4967400;28;20112;-70
2022/07/03 07:24:09;;;;;;;19.58;5.53;;;19.70;99.90;;;;;;4965658;28;20037;-69
2022/07/03 07:26:35;;;;;;;14.40;6.15;;;19.80;99.90;;;;;;4953264;28;20109;-67
2022/07/03 07:29:00;;;;;;;14.27;5.75;;;19.80;99.90;;;;;;4956650;28;20049;-68
2022/07/03 07:31:26;;;;;;;14.20;5.35;;;19.80;99.90;;;;;;4949337;28;20153;-66
2022/07/03 07:33:52;;;;;;;9.57;5.10;;;19.80;99.90;;;;;;4957039;28;20490;-69
2022/07/03 07:36:17;;;;;;;11.48;6.35;;;19.70;99.90;;;;;;4952905;28;20460;-69
2022/07/03 07:38:43;;;;;;;15.85;6.00;;;19.80;99.90;;;;;;4953137;28;20057;-68
2022/07/03 07:41:09;;;;;;;11.40;4.57;;;19.90;99.90;;;;;;4952012;28;20058;-70
2022/07/03 07:43:35;;;;;;;11.10;5.22;;;19.80;99.90;;;;;;4957189;28;20046;-69
2022/07/03 07:46:00;;;;;;;15.07;5.47;;;19.80;99.90;;;;;;4946221;28;20059;-67
2022/07/03 07:48:26;;;;;;;15.73;5.40;;;19.60;99.90;;;;;;4966537;28;20051;-71
2022/07/03 07:50:52;;;;;;;15.30;5.60;;;19.50;99.90;;;;;;4953496;28;20046;-69
2022/07/03 07:53:18;;;;;;;12.63;5.22;;;19.50;99.90;;;;;;4941751;29;20027;-68
2022/07/03 07:55:43;;;;;;;18.02;5.13;;;19.50;99.90;;;;;;4934822;29;20086;-67
2022/07/03 07:58:09;;;;;;;15.02;5.47;;;19.40;99.90;;;;;;4933939;29;20043;-67
2022/07/03 08:00:35;;;;;;;11.07;5.38;;;19.30;99.90;;;;;;4934364;29;20043;-67
2022/07/03 08:05:44;;;;;;;14.02;6.05;;;19.10;99.90;;;;;;4956076;28;20178;-69
2022/07/03 08:08:15;;;;;;;13.38;7.00;;;19.20;99.90;;;;;;4957338;28;20505;-70
2022/07/03 08:10:46;;;;;;;13.68;5.70;;;19.30;99.90;;;;;;4953340;29;20114;-71
2022/07/03 08:13:14;;;;;;;18.00;5.20;;;19.30;99.90;;;;;;4973017;28;20086;-66
2022/07/03 08:15:41;;;;;;;14.35;5.38;;;19.50;99.90;;;;;;4955269;28;20043;-68
2022/07/03 08:18:07;;;;;;;15.85;5.40;;;19.70;99.90;;;;;;4955235;28;20051;-69
2022/07/03 08:20:34;;;;;;;16.45;5.80;;;19.90;99.90;;;;;;4949650;29;20103;-69
2022/07/03 08:22:59;;;;;;;16.33;5.38;;;20.00;99.90;;;;;;4941519;28;20065;-70
2022/07/03 08:25:25;;;;;;;13.90;5.00;;;20.10;99.90;;;;;;4956180;28;20038;-70
2022/07/03 08:27:51;;;;;;;17.92;6.18;;;20.30;99.90;;;;;;4956563;28;20038;-69
2022/07/03 08:30:18;;;;;;;14.55;4.13;;;20.40;99.90;;;;;;4948692;28;20047;-67
2022/07/03 08:32:45;;;;;;;10.93;3.25;;;20.50;99.90;;;;;;4955666;28;20077;-68
2022/07/03 08:35:10;;;;;;;9.35;3.67;;;20.50;99.90;;;;;;4947050;28;20138;-70
2022/07/03 08:37:36;;;;;;;12.43;3.75;;;20.60;99.90;;;;;;4954983;28;20122;-69
2022/07/03 08:40:06;;;;;;;15.13;3.65;;;20.60;99.90;;;;;;4956983;28;20125;-70
2022/07/03 08:42:34;;;;;;;15.30;4.30;;;20.70;99.90;;;;;;4953883;28;20050;-70
2022/07/03 08:45:01;;;;;;;14.43;4.30;;;20.80;99.90;;;;;;4956414;28;20038;-71
2022/07/03 08:47:27;;;;;;;7.53;3.03;;;20.90;99.90;;;;;;4961579;28;20093;-71
2022/07/03 08:49:54;;;;;;;6.82;2.92;;;20.80;99.90;;;;;;4960307;28;20043;-68
2022/07/03 08:52:22;;;;;;;11.15;3.45;;;20.70;99.90;;;;;;4966103;28;20121;-69
2022/07/03 08:54:47;;;;;;;10.25;3.45;;;20.70;99.90;;;;;;4959330;28;20041;-70
2022/07/03 08:57:14;;;;;;;9.15;3.25;;;20.80;99.90;;;;;;4961633;28;20050;-67
2022/07/03 08:59:41;;;;;;;6.28;3.35;;;20.80;99.90;;;;;;4955844;28;20043;-70
2022/07/03 09:02:07;;;;;;;7.43;3.33;;;20.90;99.90;;;;;;4958968;28;20034;-68
2022/07/03 09:04:34;;;;;;;8.45;3.40;;;20.90;99.90;;;;;;4954997;28;20047;-69
2022/07/03 09:07:00;;;;;;;8.55;3.22;;;20.80;99.90;;;;;;4954446;28;20050;-68
2022/07/03 09:09:26;;;;;;;10.20;3.63;;;20.90;99.90;;;;;;4939999;28;20617;-68
2022/07/03 09:11:51;;;;;;;13.00;4.00;;;20.90;99.90;;;;;;4963661;28;20071;-67
2022/07/03 09:14:18;;;;;;;14.75;3.42;;;20.90;99.90;;;;;;4957371;28;20042;-67
2022/07/03 09:16:44;;;;;;;16.25;3.47;;;20.90;99.90;;;;;;4961424;28;20046;-67
2022/07/03 09:19:09;;;;;;;8.70;3.38;;;21.00;99.90;;;;;;4953880;28;20054;-67
2022/07/03 09:21:41;;;;;;;10.10;3.40;;;21.00;99.90;;;;;;4953015;28;20141;-69
2022/07/03 09:24:08;;;;;;;11.23;3.70;;;21.20;99.90;;;;;;4952582;28;20090;-69
2022/07/03 09:26:36;;;;;;;12.55;4.05;;;21.30;99.90;;;;;;4963061;28;20133;-68
2022/07/03 09:29:03;;;;;;;12.85;3.10;;;21.40;99.90;;;;;;4958361;28;20042;-70
2022/07/03 09:31:30;;;;;;;14.00;3.85;;;21.30;99.90;;;;;;4959329;28;20042;-70
2022/07/03 09:33:56;;;;;;;12.27;3.40;;;21.40;99.90;;;;;;4957004;28;20457;-70
2022/07/03 09:36:36;;;;;;;11.43;3.20;;;21.50;99.90;;;;;;4943317;28;20046;-71
2022/07/03 09:39:13;;;;;;;8.82;3.30;;;21.60;99.90;;;;;;4955422;28;20062;-69
2022/07/03 09:41:57;;;;;;;12.73;3.70;;;21.80;99.90;;;;;;4953656;28;20421;-68
2022/07/03 09:44:30;;;;;;;10.80;3.30;;;21.80;99.90;;;;;;4973662;28;20045;-68
2022/07/03 09:47:25;;;;;;;12.00;3.45;;;21.70;99.90;;;;;;4955167;28;20046;-68
2022/07/03 09:49:59;;;;;;;13.70;3.17;;;21.70;99.90;;;;;;4954409;28;20475;-71
2022/07/03 09:52:40;;;;;;;11.07;3.15;;;21.80;99.90;;;;;;4962376;28;20138;-71
2022/07/03 09:55:09;;;;;;;8.90;3.15;;;21.90;99.90;;;;;;4958473;28;20439;-70
2022/07/03 09:57:36;;;;;;;11.63;3.08;;;22.00;99.90;;;;;;4957393;28;20062;-70
2022/07/03 10:00:16;;;;;;;10.63;3.38;;;22.10;99.90;;;;;;4954550;28;20043;-68
2022/07/03 10:02:56;;;;;;;13.25;3.58;;;22.10;99.90;;;;;;4953348;28;20038;-69
2022/07/03 10:05:41;;;;;;;7.60;3.13;;;21.90;99.90;;;;;;4962914;28;20035;-70
2022/07/03 10:08:15;;;;;;;8.93;3.15;;;21.80;99.90;;;;;;4961265;28;20038;-70
2022/07/03 10:10:46;;;;;;;10.05;3.55;;;21.60;99.90;;;;;;4959568;28;20580;-69
2022/07/03 10:13:13;;;;;;;12.05;3.30;;;21.70;99.90;;;;;;4977571;28;20089;-67
2022/07/03 10:15:39;;;;;;;7.05;3.63;;;21.70;99.90;;;;;;4955722;28;20058;-69
2022/07/03 10:18:08;;;;;;;9.57;3.10;;;21.60;99.90;;;;;;4960213;28;20559;-69
2022/07/03 10:20:42;;;;;;;10.13;3.20;;;21.70;99.90;;;;;;4951475;28;20050;-69
2022/07/03 10:23:09;;;;;;;8.88;3.63;;;21.80;99.90;;;;;;4954179;28;20109;-69
2022/07/03 10:25:35;;;;;;;7.38;3.28;;;21.80;99.90;;;;;;4975797;28;20062;-73
2022/07/03 10:28:01;;;;;;;13.52;4.05;;;21.80;99.90;;;;;;4951168;28;20051;-67
2022/07/03 10:30:28;;;;;;;9.50;3.67;;;21.80;99.90;;;;;;4956654;28;20553;-69
2022/07/03 10:32:55;;;;;;;9.20;3.35;;;21.90;99.90;;;;;;4947517;28;20042;-71
2022/07/03 10:35:39;;;;;;;12.90;3.50;;;21.80;99.90;;;;;;4963210;28;20038;-69
2022/07/03 10:38:16;;;;;;;9.88;3.38;;;21.90;99.90;;;;;;4954829;28;20174;-69
2022/07/03 10:46:15;;;;;;;12.38;3.55;;;22.10;99.90;;;;;;4967465;28;20054;-69
2022/07/03 10:49:05;;;;;;;9.27;3.25;;;22.10;99.90;;;;;;4955455;28;20074;-70
2022/07/03 10:51:52;;;;;;;11.60;3.97;;;22.10;99.90;;;;;;4958834;28;20138;-71
2022/07/03 10:54:17;;;;;;;21.52;4.75;;;22.20;99.90;;;;;;4952774;28;20098;-69
2022/07/03 10:56:58;;;;;;;18.38;4.38;;;22.30;99.90;;;;;;4944374;28;20043;-69
2022/07/03 10:59:33;;;;;;;13.38;4.07;;;22.40;99.90;;;;;;4956101;28;20043;-70
2022/07/03 11:02:20;;;;;;;9.77;3.58;;;22.50;99.90;;;;;;4954676;28;20606;-72
2022/07/03 11:04:58;;;;;;;11.32;4.28;;;22.70;99.90;;;;;;4952303;28;20039;-69
2022/07/03 11:08:02;;;;;;;14.18;4.70;;;22.70;99.90;;;;;;4938111;28;20505;-70
2022/07/03 11:10:28;;;;;;;12.55;4.53;;;22.70;99.90;;;;;;4981432;28;20174;-68
2022/07/03 11:12:55;;;;;;;11.95;3.72;;;22.70;99.90;;;;;;4955673;28;20600;-70
2022/07/03 11:15:40;;;;;;;15.55;4.10;;;22.70;99.90;;;;;;4955096;28;20080;-72
2022/07/03 11:18:24;;;;;;;15.63;4.90;;;22.60;99.90;;;;;;4962852;28;20035;-73
2022/07/03 11:20:50;;;;;;;16.20;5.00;;;22.20;99.90;;;;;;4945763;28;20417;-67
2022/07/03 11:23:28;;;;;;;14.05;4.70;;;21.50;99.90;;;;;;4961505;28;20041;-69
2022/07/03 11:25:59;;;;;;;15.95;4.88;;;21.50;99.90;;;;;;4957562;28;20050;-67
2022/07/03 11:28:34;;;;;;;17.17;5.97;;;21.70;99.90;;;;;;4954181;28;20053;-70
2022/07/03 11:31:10;;;;;;;16.67;5.65;;;21.80;99.90;;;;;;4970505;28;20322;-68
2022/07/03 11:33:50;;;;;;;14.45;5.70;;;22.00;99.90;;;;;;4954852;28;20043;-68
2022/07/03 11:36:16;;;;;;;13.88;5.07;;;21.90;99.90;;;;;;4955395;28;20053;-69
2022/07/03 11:38:43;;;;;;;14.07;4.72;;;22.00;99.90;;;;;;4953753;28;20050;-71
2022/07/03 11:41:10;;;;;;;11.88;5.25;;;22.00;99.90;;;;;;4954161;28;20094;-70
2022/07/03 11:43:37;;;;;;;13.75;4.50;;;22.00;99.90;;;;;;4954394;28;20049;-71
2022/07/03 11:46:03;;;;;;;11.45;4.72;;;22.20;99.90;;;;;;4957912;28;20378;-68
2022/07/03 11:48:30;;;;;;;16.80;4.57;;;22.20;99.90;;;;;;4954732;28;20101;-69
2022/07/03 11:51:03;;;;;;;14.45;4.70;;;22.10;99.90;;;;;;4953583;28;20520;-69
2022/07/03 11:53:31;;;;;;;11.07;4.45;;;22.00;99.90;;;;;;4953779;28;20051;-68
2022/07/03 11:56:09;;;;;;;17.73;4.57;;;21.80;99.90;;;;;;4955763;28;20145;-69
2022/07/03 11:58:45;;;;;;;11.27;4.05;;;21.70;99.90;;;;;;4954004;28;20039;-69
2022/07/03 12:01:32;;;;;;;13.85;4.85;;;21.70;99.90;;;;;;4933958;29;20090;-72
2022/07/03 12:04:19;;;;;;;18.02;6.00;;;21.70;99.90;;;;;;4940901;28;20046;-69
2022/07/03 12:06:55;;;;;;;14.68;5.32;;;21.60;99.90;;;;;;4953285;28;20393;-71
2022/07/03 12:09:33;;;;;;;14.75;6.10;;;21.40;99.90;;;;;;4953315;28;20043;-69
2022/07/03 12:12:09;;;;;;;16.40;5.82;;;21.20;99.90;;;;;;4952763;28;20043;-68
2022/07/03 12:14:44;;;;;;;16.67;5.00;;;21.20;99.90;;;;;;4954041;28;20548;-69
2022/07/03 12:17:15;;;;;;;12.85;4.93;;;21.20;99.90;;;;;;4948844;28;20070;-69
2022/07/03 12:19:55;;;;;;;18.85;4.88;;;21.20;99.90;;;;;;4950826;28;20046;-69
2022/07/03 12:22:26;;;;;;;9.52;5.00;;;21.30;99.90;;;;;;4953667;28;20042;-71
2022/07/03 12:25:11;;;;;;;13.50;4.90;;;21.20;99.90;;;;;;4953148;28;20046;-68
2022/07/03 12:27:42;;;;;;;15.65;5.05;;;21.30;99.90;;;;;;4944370;28;20452;-68
2022/07/03 12:30:19;;;;;;;17.30;4.78;;;21.50;99.90;;;;;;4949940;28;20035;-70
2022/07/03 12:32:46;;;;;;;17.85;5.00;;;21.90;99.90;;;;;;4964311;28;20163;-68
2022/07/03 12:35:11;;;;;;;10.80;4.22;;;22.20;99.90;;;;;;4945242;28;20508;-69
2022/07/03 12:37:44;;;;;;;16.13;4.65;;;22.40;99.90;;;;;;4953961;28;20043;-70
2022/07/03 12:40:11;;;;;;;13.30;4.93;;;22.30;99.90;;;;;;4958592;28;20490;-69
2022/07/03 12:42:51;;;;;;;14.35;4.78;;;22.10;99.90;;;;;;4952568;28;20516;-70
2022/07/03 12:45:22;;;;;;;14.55;4.93;;;22.00;99.90;;;;;;4960686;28;20518;-68
2022/07/03 12:48:06;;;;;;;19.60;5.93;;;22.10;99.90;;;;;;4946267;28;20498;-69
2022/07/03 12:50:54;;;;;;;18.55;5.97;;;22.10;99.90;;;;;;4974204;28;20508;-68
2022/07/03 12:53:31;;;;;;;13.23;4.32;;;21.90;99.90;;;;;;4948845;28;20035;-69
2022/07/03 12:56:05;;;;;;;8.70;4.00;;;21.70;99.90;;;;;;4956760;28;20051;-68
2022/07/03 13:01:44;;;;;;;14.93;6.00;;;21.30;99.90;;;;;;4959610;28;20053;-68